TOM34N EGSS-GCLP
Flight info
| Callsign | TOM34N |
|---|---|
| Flight time | N/A |
| Altitude | 37000 |
| Route | NUGBO M183 SILVA Q41 SAM M195 LORKU DCT BALDA DCT ABUPI DCT INKIT DCT ABLEG DCT BEXAL DCT SAMAR |
| Aircraft | B738/M-SDE2E3FGHIRWXY/LB1 |
Departure
| Time | 2026-05-08 06:03 |
|---|---|
| Airport | London Stansted Airport (EGSS) |
Arrival
| Time | N/A |
|---|---|
| Airport | Gran Canaria Airport (GCLP) |
| Time | Latitude | Longitude | Altitude | Speed | Heading |
|---|---|---|---|---|---|
| 2026-05-08 05:34 | 51.88862 | 0.25341 | 358 ft | 0 kts | 42° |
| 2026-05-08 05:55 | 51.88851 | 0.25325 | 358 ft | 4 kts | 42° |
| 2026-05-08 05:56 | 51.88832 | 0.25298 | 356 ft | 4 kts | 22° |
| 2026-05-08 05:56 | 51.88810 | 0.25299 | 358 ft | 4 kts | 321° |
| 2026-05-08 05:56 | 51.88795 | 0.25323 | 353 ft | 4 kts | 313° |
| 2026-05-08 05:56 | 51.88789 | 0.25334 | 356 ft | 1 kts | 313° |
| 2026-05-08 05:59 | 51.88794 | 0.25326 | 354 ft | 4 kts | 312° |
| 2026-05-08 05:59 | 51.88834 | 0.25255 | 355 ft | 12 kts | 312° |
| 2026-05-08 05:59 | 51.88892 | 0.25148 | 350 ft | 13 kts | 311° |
| 2026-05-08 05:59 | 51.88953 | 0.25047 | 348 ft | 12 kts | 308° |
| 2026-05-08 06:00 | 51.88983 | 0.24919 | 353 ft | 12 kts | 297° |
| 2026-05-08 06:00 | 51.89039 | 0.24827 | 350 ft | 12 kts | 341° |
| 2026-05-08 06:00 | 51.89110 | 0.24875 | 351 ft | 12 kts | 43° |
| 2026-05-08 06:00 | 51.89168 | 0.24964 | 348 ft | 11 kts | 42° |
| 2026-05-08 06:01 | 51.89220 | 0.25059 | 353 ft | 12 kts | 56° |
| 2026-05-08 06:01 | 51.89269 | 0.25177 | 350 ft | 13 kts | 54° |
| 2026-05-08 06:01 | 51.89342 | 0.25260 | 352 ft | 14 kts | 355° |
| 2026-05-08 06:01 | 51.89415 | 0.25155 | 348 ft | 16 kts | 309° |
| 2026-05-08 06:02 | 51.89485 | 0.24985 | 339 ft | 20 kts | 258° |
| 2026-05-08 06:02 | 51.89311 | 0.24705 | 335 ft | 73 kts | 223° |
| 2026-05-08 06:02 | 51.88707 | 0.23800 | 336 ft | 160 kts | 223° |
| 2026-05-08 06:02 | 51.87721 | 0.22353 | 628 ft | 212 kts | 224° |
| 2026-05-08 06:03 | 51.86638 | 0.20600 | 1597 ft | 223 kts | 222° |
| 2026-05-08 06:03 | 51.85511 | 0.18836 | 2778 ft | 220 kts | 223° |
| 2026-05-08 06:03 | 51.84396 | 0.17060 | 3513 ft | 229 kts | 223° |
| 2026-05-08 06:03 | 51.83243 | 0.15211 | 4124 ft | 237 kts | 223° |
| 2026-05-08 06:04 | 51.82067 | 0.13311 | 4819 ft | 242 kts | 223° |
| 2026-05-08 06:04 | 51.80866 | 0.11366 | 5511 ft | 246 kts | 223° |
| 2026-05-08 06:04 | 51.79660 | 0.09435 | 6348 ft | 248 kts | 223° |
| 2026-05-08 06:04 | 51.78457 | 0.07449 | 7314 ft | 246 kts | 226° |
| 2026-05-08 06:05 | 51.77270 | 0.05462 | 8255 ft | 246 kts | 226° |
| 2026-05-08 06:05 | 51.76064 | 0.03476 | 9085 ft | 253 kts | 226° |
| 2026-05-08 06:05 | 51.74775 | 0.01391 | 9631 ft | 269 kts | 226° |
| 2026-05-08 06:05 | 51.73430 | -0.00755 | 10411 ft | 274 kts | 225° |
| 2026-05-08 06:06 | 51.72069 | -0.02934 | 11229 ft | 277 kts | 225° |
| 2026-05-08 06:06 | 51.70701 | -0.05149 | 12063 ft | 281 kts | 225° |
| 2026-05-08 06:06 | 51.69314 | -0.07410 | 12876 ft | 285 kts | 226° |
| 2026-05-08 06:06 | 51.67933 | -0.09674 | 13673 ft | 289 kts | 225° |
| 2026-05-08 06:07 | 51.66515 | -0.12011 | 14423 ft | 293 kts | 226° |
| 2026-05-08 06:07 | 51.65087 | -0.14382 | 15176 ft | 296 kts | 225° |
| 2026-05-08 06:07 | 51.63653 | -0.16780 | 15916 ft | 299 kts | 225° |
| 2026-05-08 06:07 | 51.62206 | -0.19216 | 16655 ft | 303 kts | 225° |
| 2026-05-08 06:08 | 51.60748 | -0.21689 | 17388 ft | 306 kts | 225° |
| 2026-05-08 06:08 | 51.59283 | -0.24194 | 18120 ft | 310 kts | 225° |
| 2026-05-08 06:08 | 51.57802 | -0.26743 | 18764 ft | 313 kts | 226° |
| 2026-05-08 06:08 | 51.56308 | -0.29315 | 19409 ft | 316 kts | 226° |
| 2026-05-08 06:09 | 51.54805 | -0.31892 | 19798 ft | 328 kts | 226° |
| 2026-05-08 06:09 | 51.53201 | -0.34628 | 19975 ft | 346 kts | 226° |
| 2026-05-08 06:09 | 51.51500 | -0.37514 | 20116 ft | 364 kts | 225° |
| 2026-05-08 06:09 | 51.49730 | -0.40511 | 20471 ft | 374 kts | 226° |
| 2026-05-08 06:10 | 51.47924 | -0.43561 | 21057 ft | 378 kts | 226° |
| 2026-05-08 06:10 | 51.46110 | -0.46613 | 21701 ft | 379 kts | 226° |
| 2026-05-08 06:10 | 51.44280 | -0.49685 | 22302 ft | 382 kts | 226° |
| 2026-05-08 06:10 | 51.42432 | -0.52777 | 22866 ft | 386 kts | 226° |
| 2026-05-08 06:11 | 51.40588 | -0.55851 | 23415 ft | 389 kts | 226° |
| 2026-05-08 06:11 | 51.38702 | -0.58981 | 23904 ft | 392 kts | 226° |
| 2026-05-08 06:11 | 51.36798 | -0.62131 | 24391 ft | 395 kts | 225° |
| 2026-05-08 06:11 | 51.34883 | -0.65292 | 24870 ft | 397 kts | 225° |
| 2026-05-08 06:12 | 51.32959 | -0.68467 | 25329 ft | 399 kts | 225° |
| 2026-05-08 06:12 | 51.31026 | -0.71664 | 25789 ft | 401 kts | 225° |
| 2026-05-08 06:12 | 51.29081 | -0.74881 | 26245 ft | 403 kts | 225° |
| 2026-05-08 06:12 | 51.27131 | -0.78109 | 26756 ft | 404 kts | 225° |
| 2026-05-08 06:13 | 51.25213 | -0.81290 | 27374 ft | 401 kts | 225° |
| 2026-05-08 06:13 | 51.23293 | -0.84481 | 28028 ft | 398 kts | 225° |
| 2026-05-08 06:13 | 51.21379 | -0.87662 | 28622 ft | 396 kts | 225° |
| 2026-05-08 06:13 | 51.19473 | -0.90832 | 29172 ft | 396 kts | 225° |
| 2026-05-08 06:14 | 51.17573 | -0.93998 | 29712 ft | 394 kts | 225° |
| 2026-05-08 06:14 | 51.15679 | -0.97151 | 30223 ft | 395 kts | 226° |
| 2026-05-08 06:14 | 51.13773 | -1.00308 | 30575 ft | 396 kts | 226° |
| 2026-05-08 06:14 | 51.11881 | -1.03425 | 30982 ft | 396 kts | 226° |
| 2026-05-08 06:15 | 51.09966 | -1.06559 | 31427 ft | 395 kts | 226° |
| 2026-05-08 06:15 | 51.08044 | -1.09683 | 31845 ft | 395 kts | 226° |
| 2026-05-08 06:15 | 51.06116 | -1.12796 | 32222 ft | 395 kts | 226° |
| 2026-05-08 06:15 | 51.04177 | -1.15900 | 32620 ft | 395 kts | 226° |
| 2026-05-08 06:16 | 51.02232 | -1.18991 | 33024 ft | 395 kts | 226° |
| 2026-05-08 06:16 | 51.00282 | -1.22067 | 33397 ft | 395 kts | 226° |
| 2026-05-08 06:16 | 50.98324 | -1.25135 | 33764 ft | 395 kts | 226° |
| 2026-05-08 06:16 | 50.96363 | -1.28189 | 34139 ft | 395 kts | 225° |
| 2026-05-08 06:17 | 50.92412 | -1.34298 | 34357 ft | 406 kts | 225° |
| 2026-05-08 06:17 | 50.88280 | -1.40621 | 34478 ft | 419 kts | 224° |
| 2026-05-08 06:18 | 50.83703 | -1.46592 | 34572 ft | 433 kts | 218° |
| 2026-05-08 06:18 | 50.78692 | -1.52075 | 34813 ft | 441 kts | 216° |
| 2026-05-08 06:19 | 50.76119 | -1.54735 | 35067 ft | 441 kts | 215° |
| 2026-05-08 06:19 | 50.73586 | -1.57331 | 35375 ft | 439 kts | 215° |
| 2026-05-08 06:19 | 50.71024 | -1.59953 | 35657 ft | 439 kts | 215° |
| 2026-05-08 06:19 | 50.68467 | -1.62580 | 35887 ft | 439 kts | 215° |
| 2026-05-08 06:20 | 50.65907 | -1.65217 | 36121 ft | 439 kts | 215° |
| 2026-05-08 06:20 | 50.63353 | -1.67854 | 36363 ft | 439 kts | 216° |
| 2026-05-08 06:20 | 50.60799 | -1.70488 | 36638 ft | 439 kts | 216° |
| 2026-05-08 06:20 | 50.58244 | -1.73118 | 36835 ft | 439 kts | 216° |
| 2026-05-08 06:21 | 50.55680 | -1.75751 | 36969 ft | 442 kts | 215° |
| 2026-05-08 06:21 | 50.53094 | -1.78401 | 37035 ft | 445 kts | 215° |
| 2026-05-08 06:21 | 50.47902 | -1.83683 | 37006 ft | 449 kts | 215° |
| 2026-05-08 06:22 | 50.45263 | -1.86355 | 36431 ft | 452 kts | 216° |
| 2026-05-08 06:22 | 50.42635 | -1.89016 | 35940 ft | 447 kts | 216° |
| 2026-05-08 06:22 | 50.40031 | -1.91647 | 35436 ft | 444 kts | 216° |
| 2026-05-08 06:22 | 50.37451 | -1.94253 | 35106 ft | 437 kts | 216° |
| 2026-05-08 06:23 | 50.32399 | -1.99352 | 35045 ft | 437 kts | 216° |
| 2026-05-08 06:23 | 50.27306 | -2.04477 | 35019 ft | 432 kts | 216° |
| 2026-05-08 06:24 | 50.22270 | -2.09496 | 35034 ft | 429 kts | 216° |
| 2026-05-08 06:24 | 50.17193 | -2.14434 | 35020 ft | 431 kts | 216° |
| 2026-05-08 06:25 | 50.12101 | -2.19377 | 35031 ft | 431 kts | 216° |
| 2026-05-08 06:25 | 50.07039 | -2.24292 | 35031 ft | 432 kts | 216° |
| 2026-05-08 06:26 | 50.01932 | -2.29241 | 35010 ft | 433 kts | 217° |
| 2026-05-08 06:26 | 49.96817 | -2.34187 | 35027 ft | 433 kts | 217° |
| 2026-05-08 06:27 | 49.91559 | -2.38822 | 35027 ft | 438 kts | 210° |
| 2026-05-08 06:27 | 49.85972 | -2.42535 | 35020 ft | 441 kts | 208° |
| 2026-05-08 06:28 | 49.80300 | -2.46154 | 35023 ft | 441 kts | 208° |
| 2026-05-08 06:28 | 49.74648 | -2.49818 | 35022 ft | 440 kts | 208° |
| 2026-05-08 06:29 | 49.69025 | -2.53511 | 35012 ft | 440 kts | 209° |
| 2026-05-08 06:29 | 49.63439 | -2.57201 | 35019 ft | 439 kts | 209° |
| 2026-05-08 06:30 | 49.57830 | -2.60894 | 35021 ft | 438 kts | 209° |
| 2026-05-08 06:30 | 49.52217 | -2.64575 | 35021 ft | 438 kts | 209° |
| 2026-05-08 06:31 | 49.46614 | -2.68240 | 35005 ft | 437 kts | 209° |
| 2026-05-08 06:31 | 49.41065 | -2.71860 | 35014 ft | 435 kts | 209° |
| 2026-05-08 06:32 | 49.35493 | -2.75486 | 35018 ft | 434 kts | 209° |
| 2026-05-08 06:32 | 49.29944 | -2.79088 | 35019 ft | 433 kts | 209° |
| 2026-05-08 06:33 | 49.24408 | -2.82673 | 35008 ft | 431 kts | 209° |
| 2026-05-08 06:33 | 49.18922 | -2.86219 | 35016 ft | 430 kts | 209° |
| 2026-05-08 06:34 | 49.13415 | -2.89768 | 35019 ft | 429 kts | 209° |
| 2026-05-08 06:34 | 49.07907 | -2.93310 | 35019 ft | 429 kts | 209° |
| 2026-05-08 06:35 | 49.02403 | -2.96842 | 35000 ft | 429 kts | 209° |
| 2026-05-08 06:35 | 48.96893 | -3.00368 | 35013 ft | 429 kts | 209° |
| 2026-05-08 06:36 | 48.91417 | -3.03862 | 35016 ft | 430 kts | 209° |
| 2026-05-08 06:36 | 48.85901 | -3.07375 | 35018 ft | 430 kts | 208° |
| 2026-05-08 06:37 | 48.80379 | -3.10883 | 34998 ft | 430 kts | 208° |
| 2026-05-08 06:37 | 48.74864 | -3.14369 | 35001 ft | 429 kts | 208° |
| 2026-05-08 06:38 | 48.69392 | -3.17830 | 34995 ft | 428 kts | 208° |
| 2026-05-08 06:38 | 48.63895 | -3.21298 | 35001 ft | 428 kts | 208° |
| 2026-05-08 06:39 | 48.58399 | -3.24757 | 34990 ft | 427 kts | 208° |
| 2026-05-08 06:39 | 48.52912 | -3.28203 | 35004 ft | 427 kts | 208° |
| 2026-05-08 06:40 | 48.47467 | -3.31614 | 35003 ft | 427 kts | 208° |
| 2026-05-08 06:40 | 48.41987 | -3.35036 | 34991 ft | 426 kts | 208° |
| 2026-05-08 06:41 | 48.36507 | -3.38453 | 34985 ft | 426 kts | 208° |
| 2026-05-08 06:41 | 48.31032 | -3.41856 | 34992 ft | 425 kts | 208° |
| 2026-05-08 06:42 | 48.25602 | -3.45222 | 34988 ft | 425 kts | 207° |
| 2026-05-08 06:42 | 48.20149 | -3.48603 | 34985 ft | 424 kts | 207° |
| 2026-05-08 06:43 | 48.14706 | -3.51969 | 34968 ft | 422 kts | 207° |
| 2026-05-08 06:43 | 48.09276 | -3.55304 | 34975 ft | 421 kts | 207° |
| 2026-05-08 06:44 | 48.03860 | -3.58635 | 34969 ft | 420 kts | 207° |
| 2026-05-08 06:44 | 47.98490 | -3.61937 | 34970 ft | 420 kts | 207° |
| 2026-05-08 06:45 | 47.93085 | -3.65249 | 34957 ft | 420 kts | 207° |
| 2026-05-08 06:45 | 47.87682 | -3.68548 | 34969 ft | 420 kts | 207° |
| 2026-05-08 06:46 | 47.82273 | -3.71838 | 34961 ft | 420 kts | 207° |
| 2026-05-08 06:46 | 47.76893 | -3.75110 | 34960 ft | 421 kts | 207° |
| 2026-05-08 06:47 | 47.71473 | -3.78401 | 34957 ft | 421 kts | 207° |
| 2026-05-08 06:47 | 47.66049 | -3.81674 | 34957 ft | 421 kts | 207° |
| 2026-05-08 06:48 | 47.60668 | -3.84917 | 34958 ft | 420 kts | 207° |
| 2026-05-08 06:48 | 47.55264 | -3.88181 | 34956 ft | 419 kts | 207° |
| 2026-05-08 06:49 | 47.49863 | -3.91426 | 34949 ft | 418 kts | 207° |
| 2026-05-08 06:49 | 47.44478 | -3.94660 | 34959 ft | 417 kts | 207° |
| 2026-05-08 06:50 | 47.39101 | -3.97882 | 34952 ft | 417 kts | 207° |
| 2026-05-08 06:50 | 47.33765 | -4.01069 | 34963 ft | 416 kts | 207° |
| 2026-05-08 06:51 | 47.28399 | -4.04265 | 34948 ft | 416 kts | 206° |
| 2026-05-08 06:51 | 47.23039 | -4.07452 | 34954 ft | 415 kts | 206° |
| 2026-05-08 06:52 | 47.17717 | -4.10610 | 34960 ft | 415 kts | 206° |
| 2026-05-08 06:52 | 47.12356 | -4.13784 | 34966 ft | 415 kts | 206° |
| 2026-05-08 06:53 | 47.06996 | -4.16950 | 34949 ft | 415 kts | 206° |
| 2026-05-08 06:53 | 47.01641 | -4.20106 | 34950 ft | 415 kts | 206° |
| 2026-05-08 06:54 | 46.96325 | -4.23231 | 34950 ft | 414 kts | 206° |
| 2026-05-08 06:54 | 46.90979 | -4.26369 | 34951 ft | 414 kts | 206° |
| 2026-05-08 06:55 | 46.85634 | -4.29499 | 34944 ft | 414 kts | 205° |
| 2026-05-08 06:55 | 46.80290 | -4.32621 | 34949 ft | 413 kts | 205° |
| 2026-05-08 06:56 | 46.74948 | -4.35736 | 34947 ft | 413 kts | 205° |
| 2026-05-08 06:56 | 46.69643 | -4.38823 | 34943 ft | 413 kts | 205° |
| 2026-05-08 06:57 | 46.64301 | -4.41924 | 34940 ft | 413 kts | 205° |
| 2026-05-08 06:57 | 46.58957 | -4.45021 | 34940 ft | 413 kts | 205° |
| 2026-05-08 06:58 | 46.53645 | -4.48093 | 34937 ft | 414 kts | 205° |
| 2026-05-08 06:58 | 46.48295 | -4.51178 | 34937 ft | 414 kts | 205° |
| 2026-05-08 06:59 | 46.42941 | -4.54257 | 34932 ft | 414 kts | 205° |
| 2026-05-08 06:59 | 46.37591 | -4.57331 | 34930 ft | 414 kts | 205° |
| 2026-05-08 07:00 | 46.32272 | -4.60383 | 34933 ft | 414 kts | 205° |
| 2026-05-08 07:00 | 46.26919 | -4.63446 | 34912 ft | 414 kts | 205° |
| 2026-05-08 07:01 | 46.21564 | -4.66496 | 34923 ft | 414 kts | 205° |
| 2026-05-08 07:01 | 46.16211 | -4.69548 | 34924 ft | 414 kts | 205° |
| 2026-05-08 07:02 | 46.10894 | -4.72572 | 34917 ft | 414 kts | 205° |
| 2026-05-08 07:02 | 46.05537 | -4.75614 | 34906 ft | 414 kts | 204° |
| 2026-05-08 07:03 | 46.00181 | -4.78646 | 34916 ft | 414 kts | 204° |
| 2026-05-08 07:03 | 45.94821 | -4.81674 | 34911 ft | 414 kts | 204° |
| 2026-05-08 07:04 | 45.89502 | -4.84672 | 34905 ft | 413 kts | 204° |
| 2026-05-08 07:04 | 45.84152 | -4.87680 | 34894 ft | 413 kts | 204° |
| 2026-05-08 07:05 | 45.78810 | -4.90679 | 34899 ft | 412 kts | 204° |
| 2026-05-08 07:05 | 45.73474 | -4.93670 | 34896 ft | 412 kts | 204° |
| 2026-05-08 07:06 | 45.68180 | -4.96630 | 34895 ft | 411 kts | 204° |
| 2026-05-08 07:06 | 45.62853 | -4.99603 | 34889 ft | 411 kts | 203° |
| 2026-05-08 07:07 | 45.57534 | -5.02565 | 34886 ft | 410 kts | 203° |
| 2026-05-08 07:07 | 45.52213 | -5.05521 | 34885 ft | 410 kts | 203° |
| 2026-05-08 07:08 | 45.46933 | -5.08448 | 34885 ft | 410 kts | 203° |
| 2026-05-08 07:08 | 45.41621 | -5.11389 | 34874 ft | 409 kts | 203° |
| 2026-05-08 07:09 | 45.36316 | -5.14320 | 34877 ft | 409 kts | 202° |
| 2026-05-08 07:09 | 45.31015 | -5.17242 | 34874 ft | 408 kts | 202° |
| 2026-05-08 07:10 | 45.25757 | -5.20135 | 34866 ft | 408 kts | 202° |
| 2026-05-08 07:10 | 45.20472 | -5.23036 | 34870 ft | 407 kts | 202° |
| 2026-05-08 07:11 | 45.15192 | -5.25930 | 34865 ft | 407 kts | 202° |
| 2026-05-08 07:11 | 45.09918 | -5.28813 | 34866 ft | 406 kts | 202° |
| 2026-05-08 07:12 | 45.04682 | -5.31671 | 34864 ft | 406 kts | 202° |
| 2026-05-08 07:12 | 44.99416 | -5.34538 | 34862 ft | 406 kts | 202° |
| 2026-05-08 07:13 | 44.94150 | -5.37401 | 34861 ft | 406 kts | 201° |
| 2026-05-08 07:13 | 44.88882 | -5.40261 | 34857 ft | 405 kts | 201° |
| 2026-05-08 07:14 | 44.83655 | -5.43092 | 34854 ft | 405 kts | 201° |